Time;durP1;ratioP1;P1;durP2;ratioP2;P2;SDS_P1;SDS_P2;PMS_P1;PMS_P2;Temp;Humidity;BMP_temperature;BMP_pressure;BME280_temperature;BME280_humidity;BME280_pressure;Samples;Min_cycle;Max_cycle;Signal;HPM_P1;HPM_P2
2021/01/28 00:00:41;;;;;;;297.35;28.42;;;1.60;99.90;;;;;;4922798;29;20140;-71
2021/01/28 00:03:09;;;;;;;437.05;32.42;;;1.50;99.90;;;;;;4924145;29;20051;-73
2021/01/28 00:05:38;;;;;;;364.88;29.70;;;1.60;99.90;;;;;;4932803;29;20518;-72
2021/01/28 00:08:06;;;;;;;271.65;26.73;;;1.70;99.90;;;;;;4926150;29;20119;-72
2021/01/28 00:10:33;;;;;;;445.30;37.00;;;1.60;99.90;;;;;;4924547;29;20095;-72
2021/01/28 00:13:02;;;;;;;289.60;25.50;;;1.70;99.90;;;;;;4929815;29;20256;-72
2021/01/28 00:15:31;;;;;;;363.23;28.35;;;1.60;99.90;;;;;;4931033;29;20051;-72
2021/01/28 00:17:59;;;;;;;303.02;31.73;;;1.70;99.90;;;;;;4932181;29;20043;-72
2021/01/28 00:20:39;;;;;;;412.35;31.50;;;1.70;99.90;;;;;;4932334;29;20150;-71
2021/01/28 00:23:06;;;;;;;219.23;24.92;;;1.70;99.90;;;;;;4922414;29;20047;-72
2021/01/28 00:25:33;;;;;;;511.52;39.15;;;1.70;99.90;;;;;;4927888;29;20083;-72
2021/01/28 00:27:59;;;;;;;263.70;24.13;;;1.70;99.90;;;;;;4928040;29;20474;-72
2021/01/28 00:30:30;;;;;;;391.02;31.48;;;1.70;99.90;;;;;;4932104;29;20103;-71
2021/01/28 00:32:57;;;;;;;383.50;33.78;;;1.70;99.90;;;;;;4947071;29;20071;-72
2021/01/28 00:35:31;;;;;;;426.77;34.70;;;1.70;99.90;;;;;;4931190;29;20082;-71
2021/01/28 00:37:58;;;;;;;359.73;31.48;;;1.70;99.90;;;;;;4928552;29;20114;-72
2021/01/28 00:40:26;;;;;;;723.42;51.50;;;1.70;99.90;;;;;;4931394;29;20051;-71
2021/01/28 00:42:53;;;;;;;208.90;23.52;;;1.70;99.90;;;;;;4931958;29;20048;-72
2021/01/28 00:45:21;;;;;;;406.65;33.42;;;1.80;99.90;;;;;;4932161;29;20431;-71
2021/01/28 00:47:48;;;;;;;421.55;34.97;;;1.80;99.90;;;;;;4931675;29;20077;-71
2021/01/28 00:50:18;;;;;;;490.02;35.78;;;1.70;99.90;;;;;;4932367;29;20044;-71
2021/01/28 00:52:46;;;;;;;324.35;27.52;;;1.80;99.90;;;;;;4932338;29;20043;-71
2021/01/28 00:55:18;;;;;;;411.80;32.33;;;1.80;99.90;;;;;;4932207;29;20071;-72
2021/01/28 00:57:44;;;;;;;293.27;23.98;;;1.80;99.90;;;;;;4932092;29;20438;-72
2021/01/28 01:00:26;;;;;;;194.38;25.55;;;1.80;99.90;;;;;;4932174;29;20494;-71
2021/01/28 01:02:53;;;;;;;115.80;17.08;;;1.90;99.90;;;;;;4932293;29;20102;-71
2021/01/28 01:05:22;;;;;;;168.57;19.67;;;1.80;99.90;;;;;;4932319;29;20183;-71
2021/01/28 01:07:50;;;;;;;166.10;21.73;;;1.80;99.90;;;;;;4931446;29;20486;-71
2021/01/28 01:10:40;;;;;;;161.13;20.88;;;1.80;99.90;;;;;;4932508;29;20147;-72
2021/01/28 01:13:12;;;;;;;113.05;18.52;;;1.80;99.90;;;;;;4931962;29;20079;-71
2021/01/28 01:15:39;;;;;;;156.87;24.43;;;1.80;99.90;;;;;;4929498;29;20115;-71
2021/01/28 01:18:06;;;;;;;140.80;21.83;;;1.90;99.90;;;;;;4930580;29;20044;-72
2021/01/28 01:20:34;;;;;;;81.00;19.13;;;1.90;99.90;;;;;;4932457;29;21464;-71
2021/01/28 01:23:01;;;;;;;57.97;15.38;;;1.90;99.90;;;;;;4934189;29;20102;-72
2021/01/28 01:25:27;;;;;;;49.92;13.85;;;2.00;99.90;;;;;;4931297;29;20052;-71
2021/01/28 01:27:54;;;;;;;37.45;10.20;;;1.90;99.90;;;;;;4931485;29;20229;-71
2021/01/28 01:30:22;;;;;;;86.30;17.75;;;1.90;99.90;;;;;;4931739;29;20052;-71
2021/01/28 01:32:50;;;;;;;40.70;14.02;;;1.90;99.90;;;;;;4931398;29;20529;-71
2021/01/28 01:35:20;;;;;;;39.90;13.90;;;1.90;99.90;;;;;;4932377;29;20098;-71
2021/01/28 01:37:47;;;;;;;54.83;17.30;;;1.90;99.90;;;;;;4945731;29;20099;-71
2021/01/28 01:40:20;;;;;;;77.43;18.17;;;1.90;99.90;;;;;;4931568;29;20115;-71
2021/01/28 01:42:51;;;;;;;36.35;12.65;;;2.00;99.90;;;;;;4924403;29;20059;-71
2021/01/28 01:45:45;;;;;;;54.33;16.65;;;1.90;99.90;;;;;;4930212;29;20044;-72
2021/01/28 01:48:22;;;;;;;50.08;14.45;;;1.90;99.90;;;;;;4928927;29;20437;-71
2021/01/28 01:50:57;;;;;;;57.55;16.52;;;1.90;99.90;;;;;;4930933;29;20146;-71
2021/01/28 01:53:49;;;;;;;64.63;15.60;;;2.00;99.90;;;;;;4932292;29;20059;-72
2021/01/28 01:56:32;;;;;;;67.05;16.58;;;2.00;99.90;;;;;;4941991;29;20149;-71
2021/01/28 01:59:03;;;;;;;74.13;13.38;;;2.00;99.90;;;;;;4931813;29;20110;-71
2021/01/28 02:01:39;;;;;;;54.90;14.50;;;2.00;99.90;;;;;;4931888;29;20104;-72
2021/01/28 02:04:08;;;;;;;44.33;15.30;;;2.00;99.90;;;;;;4931581;29;20043;-71
2021/01/28 02:06:57;;;;;;;29.52;13.30;;;2.00;99.90;;;;;;4945344;29;20051;-71
2021/01/28 02:09:23;;;;;;;31.40;12.15;;;2.00;99.90;;;;;;4930073;29;20110;-71
2021/01/28 02:11:50;;;;;;;23.25;11.00;;;2.10;99.90;;;;;;4930575;29;20089;-71
2021/01/28 02:14:18;;;;;;;17.05;9.55;;;2.10;99.90;;;;;;4930242;29;20142;-72
2021/01/28 02:16:55;;;;;;;24.10;10.98;;;2.10;99.90;;;;;;4933094;28;20043;-71
2021/01/28 02:19:45;;;;;;;19.55;9.85;;;2.10;99.90;;;;;;4927947;29;20095;-71
2021/01/28 02:22:12;;;;;;;16.90;7.78;;;2.10;99.90;;;;;;4922428;29;20475;-71
2021/01/28 02:24:50;;;;;;;22.02;9.50;;;2.10;99.90;;;;;;4930233;29;20130;-72
2021/01/28 02:27:18;;;;;;;17.05;8.60;;;2.20;99.90;;;;;;4931072;29;20424;-71
2021/01/28 02:29:46;;;;;;;15.15;7.85;;;2.20;99.90;;;;;;4933463;29;20079;-71
2021/01/28 02:32:12;;;;;;;13.10;7.68;;;2.20;99.90;;;;;;4939212;29;20115;-71
2021/01/28 02:34:42;;;;;;;11.13;6.05;;;2.20;99.90;;;;;;4934254;28;20131;-71
2021/01/28 02:37:22;;;;;;;12.93;7.38;;;2.20;99.90;;;;;;4931614;28;20122;-72
2021/01/28 02:39:48;;;;;;;18.63;8.02;;;2.20;99.90;;;;;;4932271;29;20098;-72
2021/01/28 02:42:26;;;;;;;10.80;5.70;;;2.20;99.90;;;;;;4934664;29;20047;-71
2021/01/28 02:44:52;;;;;;;13.15;5.97;;;2.20;99.90;;;;;;4943356;29;20127;-70
2021/01/28 02:47:19;;;;;;;14.75;7.30;;;2.20;99.90;;;;;;4940279;28;20541;-70
2021/01/28 02:49:45;;;;;;;12.68;6.28;;;2.20;99.90;;;;;;4938187;28;20052;-70
2021/01/28 02:52:12;;;;;;;11.27;5.70;;;2.20;99.90;;;;;;4935230;29;20051;-70
2021/01/28 02:54:43;;;;;;;11.90;5.53;;;2.30;99.90;;;;;;4932015;29;20150;-70
2021/01/28 02:57:09;;;;;;;8.73;4.65;;;2.30;99.90;;;;;;4933821;29;20056;-70
2021/01/28 02:59:36;;;;;;;8.32;4.85;;;2.30;99.90;;;;;;4935183;29;20047;-70
2021/01/28 03:02:10;;;;;;;8.63;5.07;;;2.30;99.90;;;;;;4934412;29;20083;-71
2021/01/28 03:04:38;;;;;;;10.40;5.45;;;2.30;99.90;;;;;;4934959;29;20094;-70
2021/01/28 03:07:05;;;;;;;8.07;4.75;;;2.30;99.90;;;;;;4940656;29;20138;-70
2021/01/28 03:09:33;;;;;;;9.68;4.45;;;2.40;99.90;;;;;;4933632;29;20236;-70
2021/01/28 03:12:00;;;;;;;7.75;3.30;;;2.40;99.90;;;;;;4937054;29;20055;-70
2021/01/28 03:14:27;;;;;;;7.32;4.18;;;2.30;99.90;;;;;;4935380;29;20090;-70
2021/01/28 03:16:53;;;;;;;7.55;3.85;;;2.40;99.90;;;;;;4932460;29;20102;-70
2021/01/28 03:19:21;;;;;;;9.50;4.45;;;2.30;99.90;;;;;;4940971;29;20055;-70
2021/01/28 03:21:47;;;;;;;6.60;3.92;;;2.30;99.90;;;;;;4934812;28;20391;-70
2021/01/28 03:24:15;;;;;;;10.38;4.88;;;2.30;99.90;;;;;;4933660;29;20599;-70
2021/01/28 03:26:41;;;;;;;5.38;2.85;;;2.40;99.90;;;;;;4934193;29;20079;-70
2021/01/28 03:29:11;;;;;;;6.10;3.13;;;2.40;99.90;;;;;;4936023;28;20048;-70
2021/01/28 03:31:39;;;;;;;7.50;3.55;;;2.40;99.90;;;;;;4932390;29;20107;-70
2021/01/28 03:34:06;;;;;;;4.35;2.05;;;2.40;99.90;;;;;;4924071;29;20498;-70
2021/01/28 03:36:33;;;;;;;4.78;2.55;;;2.40;99.90;;;;;;4933997;29;20146;-70
2021/01/28 03:38:59;;;;;;;4.10;2.20;;;2.50;99.90;;;;;;4933828;29;20079;-70
2021/01/28 03:41:26;;;;;;;4.57;2.67;;;2.40;99.90;;;;;;4948579;29;20051;-70
2021/01/28 03:43:53;;;;;;;6.55;2.80;;;2.40;99.90;;;;;;4933501;29;20142;-70
2021/01/28 03:46:19;;;;;;;2.75;1.60;;;2.40;99.90;;;;;;4934384;29;20082;-70
2021/01/28 03:48:45;;;;;;;4.68;1.75;;;2.40;99.90;;;;;;4929601;29;20131;-70
2021/01/28 03:51:12;;;;;;;5.32;2.60;;;2.50;99.90;;;;;;4933565;29;20239;-70
2021/01/28 03:53:38;;;;;;;6.68;2.80;;;2.50;99.90;;;;;;4924031;29;20387;-70
2021/01/28 03:56:05;;;;;;;4.80;2.03;;;2.50;99.90;;;;;;4936812;28;20535;-70
2021/01/28 03:58:32;;;;;;;3.97;1.67;;;2.50;99.90;;;;;;4935035;29;20052;-70
2021/01/28 04:00:58;;;;;;;7.97;1.95;;;2.50;99.90;;;;;;4933051;29;20043;-70
2021/01/28 04:03:25;;;;;;;5.13;2.55;;;2.60;99.90;;;;;;4936195;29;20082;-70
2021/01/28 04:05:51;;;;;;;3.78;1.67;;;2.60;99.90;;;;;;4934208;29;20078;-70
2021/01/28 04:08:17;;;;;;;2.80;1.40;;;2.60;99.90;;;;;;4932374;29;20075;-70
2021/01/28 04:10:44;;;;;;;4.93;2.30;;;2.60;99.90;;;;;;4933550;29;20589;-70
2021/01/28 04:13:10;;;;;;;3.20;1.67;;;2.60;99.90;;;;;;4935751;28;20047;-71
2021/01/28 04:15:37;;;;;;;5.38;2.60;;;2.60;99.90;;;;;;4942726;29;20134;-70
2021/01/28 04:18:04;;;;;;;5.30;2.40;;;2.70;99.90;;;;;;4936444;29;20071;-71
2021/01/28 04:20:33;;;;;;;4.22;2.22;;;2.70;99.90;;;;;;4930678;29;20048;-71
2021/01/28 04:23:01;;;;;;;3.25;1.75;;;2.70;99.90;;;;;;4937722;29;20043;-71
2021/01/28 04:25:28;;;;;;;3.88;2.22;;;2.70;99.90;;;;;;4933909;29;20048;-71
2021/01/28 04:27:56;;;;;;;7.07;2.67;;;2.70;99.90;;;;;;4932385;29;20083;-71
2021/01/28 04:30:28;;;;;;;3.72;1.67;;;2.70;99.90;;;;;;4932178;29;20056;-70
2021/01/28 04:32:56;;;;;;;3.50;1.92;;;2.70;99.90;;;;;;4931744;29;20051;-70
2021/01/28 04:35:23;;;;;;;4.32;2.17;;;2.70;99.90;;;;;;4932292;29;20093;-70
2021/01/28 04:37:50;;;;;;;4.07;1.77;;;2.70;99.90;;;;;;4932346;29;20044;-70
2021/01/28 04:40:40;;;;;;;2.97;1.45;;;2.70;99.90;;;;;;4940942;29;20043;-70
2021/01/28 04:43:25;;;;;;;2.38;1.30;;;2.70;99.90;;;;;;4931960;29;20135;-71
2021/01/28 04:45:56;;;;;;;3.72;1.65;;;2.80;99.90;;;;;;4929243;29;20138;-71
2021/01/28 04:48:28;;;;;;;5.93;1.80;;;2.90;99.90;;;;;;4945550;29;20070;-71
2021/01/28 04:50:56;;;;;;;2.70;1.42;;;2.80;99.90;;;;;;4932577;29;20139;-71
2021/01/28 04:53:31;;;;;;;4.80;2.35;;;2.80;99.90;;;;;;4931744;29;20142;-70
2021/01/28 04:56:04;;;;;;;3.50;1.70;;;2.80;99.90;;;;;;4932960;29;20056;-71
2021/01/28 04:58:30;;;;;;;3.17;1.38;;;2.80;99.90;;;;;;4922409;29;20059;-70
2021/01/28 05:00:57;;;;;;;1.90;1.02;;;2.80;99.90;;;;;;4934195;29;20463;-70
2021/01/28 05:03:27;;;;;;;2.42;1.27;;;2.80;99.90;;;;;;4933610;29;20047;-70
2021/01/28 05:05:56;;;;;;;3.10;1.60;;;2.80;99.90;;;;;;4931811;29;20040;-71
2021/01/28 05:08:23;;;;;;;2.63;1.42;;;2.90;99.90;;;;;;4930837;29;20068;-70
2021/01/28 05:10:55;;;;;;;3.20;1.60;;;2.80;99.90;;;;;;4936993;28;20510;-70
2021/01/28 05:13:30;;;;;;;4.10;1.52;;;2.80;99.90;;;;;;4936359;29;20106;-70
2021/01/28 05:16:16;;;;;;;2.17;0.95;;;2.90;99.90;;;;;;4934558;28;20182;-70
2021/01/28 05:18:54;;;;;;;1.83;1.02;;;2.80;99.90;;;;;;4939637;29;20070;-70
2021/01/28 05:21:23;;;;;;;2.50;1.25;;;2.90;99.90;;;;;;4931947;29;20043;-70
2021/01/28 05:24:19;;;;;;;2.65;1.30;;;2.90;99.90;;;;;;4932490;29;20119;-70
2021/01/28 05:26:46;;;;;;;3.00;1.45;;;2.90;99.90;;;;;;4935241;29;20135;-70
2021/01/28 05:29:26;;;;;;;3.63;1.38;;;2.90;99.90;;;;;;4939072;28;20085;-70
2021/01/28 05:31:56;;;;;;;3.63;1.92;;;2.90;99.90;;;;;;4933853;29;20079;-70
2021/01/28 05:34:29;;;;;;;2.38;1.02;;;2.90;99.90;;;;;;4940440;28;20074;-70
2021/01/28 05:37:00;;;;;;;2.58;1.55;;;3.00;99.90;;;;;;4931611;29;20090;-70
2021/01/28 05:39:29;;;;;;;3.28;1.48;;;3.00;99.90;;;;;;4931797;29;20165;-72
2021/01/28 05:42:25;;;;;;;6.07;2.72;;;2.90;99.90;;;;;;4942394;28;20130;-71
2021/01/28 05:44:53;;;;;;;3.92;2.20;;;2.90;99.90;;;;;;4931584;29;20502;-71
2021/01/28 05:47:33;;;;;;;3.28;1.23;;;2.90;99.90;;;;;;4941561;28;20051;-71
2021/01/28 05:50:22;;;;;;;3.13;1.58;;;3.00;99.90;;;;;;4938980;28;20054;-71
2021/01/28 05:52:49;;;;;;;3.67;1.75;;;3.00;99.90;;;;;;4936214;29;20498;-71
2021/01/28 05:55:19;;;;;;;2.67;1.40;;;3.00;99.90;;;;;;4933284;28;20056;-71
2021/01/28 05:57:51;;;;;;;4.78;2.80;;;2.90;99.90;;;;;;4930696;29;20090;-71
2021/01/28 06:00:22;;;;;;;4.97;3.35;;;3.00;99.90;;;;;;4947692;29;20130;-72
2021/01/28 06:03:19;;;;;;;4.10;2.03;;;3.00;99.90;;;;;;4913645;29;20515;-72
2021/01/28 06:06:23;;;;;;;3.05;1.35;;;3.00;99.90;;;;;;4921139;29;20142;-72
2021/01/28 06:09:13;;;;;;;2.05;1.20;;;3.00;99.90;;;;;;4940072;28;20570;-71
2021/01/28 06:12:15;;;;;;;5.03;2.50;;;3.10;99.90;;;;;;4913548;29;20083;-71
2021/01/28 06:15:18;;;;;;;6.82;3.58;;;3.00;99.90;;;;;;4928590;29;20126;-71
2021/01/28 06:17:58;;;;;;;5.43;2.35;;;3.00;99.90;;;;;;4935584;29;20137;-71
2021/01/28 06:20:49;;;;;;;4.13;2.88;;;3.00;99.90;;;;;;4952117;28;20051;-71
2021/01/28 06:23:27;;;;;;;5.18;3.03;;;3.10;99.90;;;;;;4953460;28;20051;-72
2021/01/28 06:26:31;;;;;;;4.10;2.08;;;3.20;99.90;;;;;;4946368;28;20097;-71
2021/01/28 06:29:10;;;;;;;2.22;1.00;;;3.20;99.90;;;;;;4917144;29;20131;-72
2021/01/28 06:32:14;;;;;;;2.95;1.77;;;3.10;99.90;;;;;;4931063;29;20077;-72
2021/01/28 06:35:02;;;;;;;2.67;1.30;;;3.20;99.90;;;;;;4936847;29;20079;-72
2021/01/28 06:37:50;;;;;;;4.25;1.92;;;3.30;99.90;;;;;;4926004;29;20559;-71
2021/01/28 06:40:48;;;;;;;3.35;1.85;;;3.20;99.90;;;;;;4934419;29;20091;-72
2021/01/28 06:43:21;;;;;;;2.70;1.33;;;3.30;99.90;;;;;;4938085;29;20143;-71
2021/01/28 06:46:07;;;;;;;4.43;1.73;;;3.20;99.90;;;;;;4940512;29;20503;-71
2021/01/28 06:48:40;;;;;;;4.32;1.45;;;3.20;99.90;;;;;;4952439;28;20086;-71
2021/01/28 06:51:24;;;;;;;3.85;1.92;;;3.30;99.90;;;;;;4936820;29;20154;-71
2021/01/28 06:53:52;;;;;;;;;;;3.20;99.90;;;;;;4941627;29;20446;-71
2021/01/28 06:56:43;;;;;;;3.00;1.63;;;3.20;99.90;;;;;;4952456;29;19922;-71
2021/01/28 06:59:16;;;;;;;3.40;1.35;;;3.30;99.90;;;;;;4943177;28;20126;-71
2021/01/28 07:02:09;;;;;;;2.38;1.42;;;3.30;99.90;;;;;;4939756;29;20225;-71
2021/01/28 07:04:59;;;;;;;2.17;1.10;;;3.30;99.90;;;;;;4939866;29;20051;-71
2021/01/28 07:07:29;;;;;;;2.10;1.10;;;3.30;99.90;;;;;;4932754;28;20053;-71
2021/01/28 07:10:06;;;;;;;2.08;1.02;;;3.40;99.90;;;;;;4926924;28;20079;-72
2021/01/28 07:12:44;;;;;;;2.33;1.40;;;3.30;99.90;;;;;;4949202;28;20079;-71
2021/01/28 07:15:12;;;;;;;7.95;2.40;;;3.30;99.90;;;;;;4950773;28;20470;-71
2021/01/28 07:17:44;;;;;;;4.60;2.30;;;3.30;99.90;;;;;;4934197;29;20098;-71
2021/01/28 07:20:36;;;;;;;1.60;0.80;;;3.30;99.90;;;;;;4928183;29;20047;-72
2021/01/28 07:23:14;;;;;;;1.13;0.63;;;3.30;99.90;;;;;;4933908;29;20071;-72
2021/01/28 07:25:43;;;;;;;14.38;1.83;;;3.40;99.90;;;;;;4930015;29;20127;-72
2021/01/28 07:28:19;;;;;;;1.70;0.90;;;3.40;99.90;;;;;;4932113;29;20392;-71
2021/01/28 07:30:50;;;;;;;2.42;1.10;;;3.40;99.90;;;;;;4934241;29;20056;-72
2021/01/28 07:33:48;;;;;;;2.90;1.20;;;3.50;99.90;;;;;;4932929;29;20096;-71
2021/01/28 07:36:23;;;;;;;1.73;0.98;;;3.50;99.90;;;;;;4934070;29;20574;-72
2021/01/28 07:38:58;;;;;;;7.55;1.25;;;3.50;99.90;;;;;;4935605;29;20529;-71
2021/01/28 07:41:29;;;;;;;2.70;1.25;;;3.60;99.90;;;;;;4944377;29;20090;-71
2021/01/28 07:44:24;;;;;;;1.77;0.90;;;3.60;99.90;;;;;;4932537;29;20129;-71
2021/01/28 07:46:53;;;;;;;2.72;1.17;;;3.60;99.90;;;;;;4931875;29;20055;-71
2021/01/28 07:49:25;;;;;;;2.38;1.02;;;3.70;99.90;;;;;;4933780;29;20059;-71
2021/01/28 07:52:12;;;;;;;3.20;1.30;;;3.70;99.90;;;;;;4933657;29;20090;-71
2021/01/28 07:54:49;;;;;;;1.35;0.65;;;3.70;99.90;;;;;;4933464;28;20315;-71
2021/01/28 07:57:28;;;;;;;1.48;0.88;;;3.80;99.90;;;;;;4933320;29;20127;-71
2021/01/28 08:00:09;;;;;;;1.33;0.70;;;3.80;99.90;;;;;;4931566;29;20099;-72
2021/01/28 08:02:38;;;;;;;3.42;1.50;;;3.90;99.90;;;;;;4931803;29;20415;-71
2021/01/28 08:05:04;;;;;;;1.45;0.90;;;3.90;99.90;;;;;;4934378;29;20099;-72
2021/01/28 08:07:38;;;;;;;1.02;0.70;;;3.90;99.90;;;;;;4929982;29;20083;-71
2021/01/28 08:10:30;;;;;;;2.10;1.10;;;3.90;99.90;;;;;;4934425;29;20410;-71
2021/01/28 08:13:02;;;;;;;2.05;0.98;;;3.90;99.90;;;;;;4932233;29;20182;-71
2021/01/28 08:15:45;;;;;;;2.05;0.80;;;4.00;99.90;;;;;;4933845;29;20057;-71
2021/01/28 08:18:30;;;;;;;3.00;0.88;;;4.00;99.90;;;;;;4932422;29;20115;-71
2021/01/28 08:21:18;;;;;;;3.22;1.00;;;4.00;99.90;;;;;;4934030;29;20418;-71
2021/01/28 08:23:44;;;;;;;2.25;1.13;;;4.00;99.90;;;;;;4933554;29;20447;-71
2021/01/28 08:26:32;;;;;;;1.60;0.90;;;4.10;99.90;;;;;;4933028;29;20044;-71
2021/01/28 08:29:06;;;;;;;1.42;0.75;;;4.10;99.90;;;;;;4929647;29;20135;-71
2021/01/28 08:31:43;;;;;;;1.85;0.90;;;4.10;99.90;;;;;;4933320;29;20051;-71
2021/01/28 08:34:16;;;;;;;2.20;0.98;;;4.10;99.90;;;;;;4933178;29;20052;-71
2021/01/28 08:36:50;;;;;;;1.88;1.00;;;4.10;99.90;;;;;;4932573;29;20051;-72
2021/01/28 08:39:29;;;;;;;3.05;1.42;;;4.20;99.90;;;;;;4932676;29;20132;-71
2021/01/28 08:42:01;;;;;;;3.63;1.33;;;4.10;99.90;;;;;;4926376;29;20056;-72
2021/01/28 08:44:30;;;;;;;5.10;1.85;;;4.20;99.90;;;;;;4931825;29;20059;-72
2021/01/28 08:47:20;;;;;;;3.78;1.70;;;4.20;99.90;;;;;;4932617;29;20180;-72
2021/01/28 08:50:12;;;;;;;2.58;1.00;;;4.30;99.90;;;;;;4933078;29;20534;-71
2021/01/28 08:52:39;;;;;;;5.35;1.17;;;4.30;99.90;;;;;;4932188;29;20091;-71
2021/01/28 08:55:27;;;;;;;2.22;1.23;;;4.40;99.90;;;;;;4931913;29;20210;-72
2021/01/28 08:58:04;;;;;;;2.03;0.80;;;4.50;99.90;;;;;;4928107;29;20086;-72
2021/01/28 09:00:31;;;;;;;1.45;0.80;;;4.50;99.90;;;;;;4932288;29;20514;-73
2021/01/28 09:03:01;;;;;;;2.42;1.27;;;4.50;99.90;;;;;;4931944;29;20055;-71
2021/01/28 09:05:32;;;;;;;2.35;1.17;;;4.50;99.90;;;;;;4932602;29;20421;-71
2021/01/28 09:08:06;;;;;;;1.85;0.85;;;4.60;99.90;;;;;;4932066;29;20470;-71
2021/01/28 09:10:42;;;;;;;1.88;1.00;;;4.60;99.90;;;;;;4928701;29;20111;-71
2021/01/28 09:13:21;;;;;;;2.40;1.42;;;4.60;99.90;;;;;;4929672;29;20048;-71
2021/01/28 09:16:07;;;;;;;1.60;0.93;;;4.80;99.90;;;;;;4932541;29;20155;-72
2021/01/28 09:18:38;;;;;;;2.85;1.13;;;4.80;99.90;;;;;;4931640;29;20122;-72
2021/01/28 09:21:19;;;;;;;1.98;0.95;;;4.80;99.90;;;;;;4932818;29;20426;-72
2021/01/28 09:24:04;;;;;;;1.85;1.17;;;4.90;99.90;;;;;;4933066;29;20450;-71
2021/01/28 09:26:35;;;;;;;1.45;0.80;;;4.90;99.90;;;;;;4931329;29;20451;-71
2021/01/28 09:29:22;;;;;;;2.13;0.80;;;5.00;99.90;;;;;;4931409;29;20520;-72
2021/01/28 09:31:50;;;;;;;1.40;0.70;;;5.10;99.90;;;;;;4922989;29;20408;-72
2021/01/28 09:34:31;;;;;;;1.23;0.60;;;5.10;99.90;;;;;;4931949;29;20097;-72
2021/01/28 09:37:04;;;;;;;1.95;0.70;;;5.20;99.90;;;;;;4932336;29;20424;-71
2021/01/28 09:39:40;;;;;;;;;;;5.30;99.90;;;;;;4928251;29;20079;-71
2021/01/28 09:42:25;;;;;;;2.35;1.30;;;5.40;99.90;;;;;;4928737;29;19922;-71
2021/01/28 09:44:53;;;;;;;1.20;0.60;;;5.50;99.90;;;;;;4932615;29;20048;-72
2021/01/28 09:47:28;;;;;;;1.08;0.65;;;5.60;99.90;;;;;;4931450;29;20574;-71
2021/01/28 09:49:57;;;;;;;1.50;0.70;;;5.60;99.90;;;;;;4931761;29;20139;-72
2021/01/28 09:52:34;;;;;;;2.38;0.80;;;5.70;99.90;;;;;;4932326;29;20083;-71
2021/01/28 09:55:13;;;;;;;1.75;0.90;;;5.70;99.90;;;;;;4921477;29;20140;-71
2021/01/28 09:57:40;;;;;;;1.73;0.80;;;5.80;99.90;;;;;;4913301;29;20048;-70
2021/01/28 10:00:09;;;;;;;1.52;0.60;;;5.90;99.90;;;;;;4929728;29;20591;-71
2021/01/28 10:02:55;;;;;;;3.60;0.80;;;5.90;99.90;;;;;;4926032;29;20044;-70
2021/01/28 10:05:27;;;;;;;1.30;0.50;;;5.90;99.90;;;;;;4926282;29;20989;-70
2021/01/28 10:07:53;;;;;;;1.20;0.80;;;5.90;99.90;;;;;;4929028;29;20063;-71
2021/01/28 10:10:23;;;;;;;1.15;0.52;;;5.90;99.90;;;;;;4931906;29;20574;-71
2021/01/28 10:12:53;;;;;;;1.90;0.70;;;6.00;99.90;;;;;;4927345;29;20526;-70
2021/01/28 10:15:20;;;;;;;1.30;0.60;;;6.00;99.90;;;;;;4932242;29;20175;-70
2021/01/28 10:17:46;;;;;;;1.38;0.50;;;5.90;99.90;;;;;;4944305;28;20075;-70
2021/01/28 10:20:14;;;;;;;2.60;1.00;;;6.00;99.90;;;;;;4930807;29;20051;-70
2021/01/28 10:22:42;;;;;;;2.85;0.50;;;6.00;99.90;;;;;;4922085;29;20048;-70
2021/01/28 10:25:13;;;;;;;1.33;0.60;;;6.10;99.90;;;;;;4929775;29;20055;-70
2021/01/28 10:27:39;;;;;;;1.40;0.70;;;6.20;99.90;;;;;;4924200;29;20120;-70
2021/01/28 10:30:08;;;;;;;0.68;0.40;;;6.20;99.90;;;;;;4923172;29;20130;-69
2021/01/28 10:32:34;;;;;;;0.98;0.60;;;6.20;99.90;;;;;;4917517;29;20503;-71
2021/01/28 10:35:01;;;;;;;1.10;0.60;;;6.30;99.90;;;;;;4930574;29;20565;-70
2021/01/28 10:37:28;;;;;;;1.70;0.50;;;6.30;99.90;;;;;;4927982;29;20494;-70
2021/01/28 10:39:54;;;;;;;1.67;0.60;;;6.40;99.90;;;;;;4944942;29;20047;-70
2021/01/28 10:42:31;;;;;;;1.75;0.60;;;6.50;99.90;;;;;;4930903;29;20123;-71
2021/01/28 10:44:59;;;;;;;0.98;0.57;;;6.50;99.90;;;;;;4927643;29;20511;-71
2021/01/28 10:47:26;;;;;;;1.08;0.60;;;6.70;99.90;;;;;;4930115;29;20492;-71
2021/01/28 10:50:10;;;;;;;1.48;0.60;;;6.90;99.90;;;;;;4928135;29;20059;-71
2021/01/28 10:52:37;;;;;;;1.00;0.50;;;7.00;99.90;;;;;;4930798;29;20393;-70
2021/01/28 10:55:05;;;;;;;1.55;0.60;;;7.20;99.90;;;;;;4930730;29;20080;-71
2021/01/28 10:57:32;;;;;;;0.60;0.50;;;7.20;99.90;;;;;;4929711;29;20072;-71
2021/01/28 10:59:59;;;;;;;1.35;0.60;;;7.20;99.90;;;;;;4930888;29;20079;-71
2021/01/28 11:02:25;;;;;;;1.70;0.60;;;7.30;99.90;;;;;;4933453;29;20147;-70
2021/01/28 11:04:52;;;;;;;0.65;0.47;;;7.30;99.90;;;;;;4925433;29;20052;-71
2021/01/28 11:07:18;;;;;;;1.10;0.57;;;7.20;99.90;;;;;;4933559;29;20091;-71
2021/01/28 11:09:45;;;;;;;0.68;0.43;;;7.30;99.90;;;;;;4933983;29;20052;-71
2021/01/28 11:12:11;;;;;;;1.33;0.63;;;7.40;99.90;;;;;;4933338;29;20052;-71
2021/01/28 11:14:37;;;;;;;0.63;0.40;;;7.50;99.90;;;;;;4921285;29;20135;-71
2021/01/28 11:17:04;;;;;;;1.13;0.50;;;7.60;99.90;;;;;;4931720;29;20056;-71
2021/01/28 11:19:30;;;;;;;1.25;0.52;;;7.60;99.90;;;;;;4933696;29;20486;-71
2021/01/28 11:21:57;;;;;;;0.70;0.40;;;7.70;99.90;;;;;;4946492;28;20048;-71
2021/01/28 11:24:23;;;;;;;1.13;0.50;;;7.80;99.90;;;;;;4933937;29;20079;-72
2021/01/28 11:26:50;;;;;;;1.33;0.70;;;7.80;99.90;;;;;;4930888;29;20087;-70
2021/01/28 11:29:22;;;;;;;0.43;0.32;;;7.90;99.90;;;;;;4933541;29;20534;-72
2021/01/28 11:31:48;;;;;;;1.40;0.60;;;8.00;99.90;;;;;;4933846;29;20530;-71
2021/01/28 11:34:15;;;;;;;0.70;0.40;;;8.10;99.90;;;;;;4930117;29;20263;-72
2021/01/28 11:36:41;;;;;;;0.80;0.50;;;8.10;99.90;;;;;;4932675;29;20058;-72
2021/01/28 11:39:08;;;;;;;1.15;0.70;;;8.10;99.90;;;;;;4931800;29;20154;-71
2021/01/28 11:41:34;;;;;;;2.17;0.60;;;8.10;99.90;;;;;;4931872;29;20150;-72
2021/01/28 11:44:01;;;;;;;1.80;0.70;;;8.10;99.90;;;;;;4933702;29;20067;-72
2021/01/28 11:46:27;;;;;;;2.22;0.98;;;8.20;99.90;;;;;;4928673;29;20079;-72
2021/01/28 11:48:54;;;;;;;0.70;0.40;;;8.20;99.90;;;;;;4931383;29;20158;-72
2021/01/28 11:51:20;;;;;;;1.45;0.88;;;8.30;99.90;;;;;;4945784;28;20107;-72
2021/01/28 11:54:02;;;;;;;1.27;0.60;;;8.30;99.90;;;;;;4933428;29;20051;-71
2021/01/28 11:56:28;;;;;;;4.00;1.90;;;8.40;99.90;;;;;;4926869;29;20070;-72
2021/01/28 11:58:55;;;;;;;1.38;0.65;;;8.40;99.90;;;;;;4933486;29;20086;-72
2021/01/28 12:01:21;;;;;;;1.27;0.70;;;8.50;99.90;;;;;;4931459;29;20546;-72
2021/01/28 12:03:48;;;;;;;1.33;0.60;;;8.50;99.90;;;;;;4924412;29;20044;-72
2021/01/28 12:06:15;;;;;;;2.78;0.68;;;8.60;99.90;;;;;;4938354;29;20123;-72
2021/01/28 12:08:41;;;;;;;1.65;0.80;;;8.70;99.90;;;;;;4930608;29;20138;-72
2021/01/28 12:11:07;;;;;;;1.50;0.80;;;8.70;99.90;;;;;;4933794;29;20075;-72
2021/01/28 12:13:34;;;;;;;2.22;0.70;;;8.90;99.90;;;;;;4932817;29;20106;-72
2021/01/28 12:16:01;;;;;;;1.50;0.70;;;8.80;99.90;;;;;;4926814;29;20047;-72
2021/01/28 12:18:27;;;;;;;1.25;0.40;;;8.90;99.90;;;;;;4928507;29;20079;-71
2021/01/28 12:20:53;;;;;;;0.82;0.40;;;8.90;99.90;;;;;;4932987;29;20099;-72
2021/01/28 12:23:20;;;;;;;0.70;0.40;;;8.90;99.90;;;;;;4928617;29;20131;-71
2021/01/28 12:25:46;;;;;;;1.23;0.57;;;9.00;99.90;;;;;;4920402;29;20415;-71
2021/01/28 12:28:14;;;;;;;0.75;0.40;;;9.10;99.90;;;;;;4924622;29;20079;-72
2021/01/28 12:30:40;;;;;;;1.52;0.40;;;9.10;99.90;;;;;;4930759;29;20107;-72
2021/01/28 12:33:07;;;;;;;1.60;0.60;;;9.20;99.90;;;;;;4929374;29;20047;-72
2021/01/28 12:35:34;;;;;;;1.25;0.50;;;9.20;99.90;;;;;;4929305;29;20134;-72
2021/01/28 12:38:02;;;;;;;0.93;0.50;;;9.30;99.90;;;;;;4931833;29;20143;-72
2021/01/28 12:40:28;;;;;;;0.98;0.40;;;9.30;99.90;;;;;;4945886;29;20080;-72
2021/01/28 12:42:57;;;;;;;1.95;0.80;;;9.50;99.90;;;;;;4932655;29;20483;-72
2021/01/28 12:45:23;;;;;;;0.60;0.30;;;9.60;99.90;;;;;;4931421;29;20079;-72
2021/01/28 12:47:50;;;;;;;1.33;0.52;;;9.60;99.90;;;;;;4930157;29;20075;-72
2021/01/28 12:50:17;;;;;;;1.20;0.40;;;9.70;99.90;;;;;;4930937;29;20060;-72
2021/01/28 12:52:45;;;;;;;1.30;0.45;;;9.80;99.90;;;;;;4925085;29;20052;-72
2021/01/28 12:55:13;;;;;;;3.67;0.50;;;9.80;99.90;;;;;;4920869;29;20075;-72
2021/01/28 12:57:39;;;;;;;1.80;0.60;;;9.90;99.90;;;;;;4930887;29;20530;-72
2021/01/28 13:00:09;;;;;;;1.90;0.40;;;10.00;99.90;;;;;;4930265;29;20051;-73
2021/01/28 13:02:35;;;;;;;1.17;0.47;;;10.00;99.90;;;;;;4929750;29;20051;-72
2021/01/28 13:05:03;;;;;;;0.57;0.30;;;10.10;99.90;;;;;;4932660;29;20116;-72
2021/01/28 13:07:29;;;;;;;0.90;0.43;;;10.10;99.90;;;;;;4927304;29;20079;-72
2021/01/28 13:09:56;;;;;;;2.42;0.50;;;10.20;99.90;;;;;;4929589;29;20059;-73
2021/01/28 13:12:22;;;;;;;0.80;0.35;;;10.20;99.90;;;;;;4923249;29;20579;-72
2021/01/28 13:14:49;;;;;;;0.60;0.30;;;10.30;99.90;;;;;;4928268;29;20124;-72
2021/01/28 13:17:16;;;;;;;1.15;0.50;;;10.40;99.90;;;;;;4928053;29;20506;-73
2021/01/28 13:19:44;;;;;;;1.52;0.40;;;10.40;99.90;;;;;;4929723;29;20434;-72